• Join FlightAware (Why Join?)
  • Login
  • US Flag 
08:04PM EDT


 

Airport Tracker/Info


-or-


 

Live Flight TrackerFlight Track Log ✈ WBR2907 ✈ 06-Jul-2013 ✈ KBRL - KSTL

Flight Track Log - Related Links

Times and Time Zones

All times are in EDT time to prevent confusion due to time zone crossing. See the WBR2907 flight status page for this flight to view local times or setup timezone preferences in your user account.

Time Position Orientation Groundspeed Altitude Reporting Facility
EDT Latitude Longitude Course Direction KTS MPH feet Rate Location/Type
08:21AM 40.7658 -91.1239 160° South 77 89 1,200  Level Kansas City Center
08:22AM 40.7436 -91.1131 160° South 79 91 1,800 720 Climbing Kansas City Center
08:23AM 40.7181 -91.1042 165° South 96 110 2,800 900 Climbing Chicago Center
08:24AM 40.6842 -91.0925 165° South 102 117 3,700 780 Climbing Chicago Center
08:25AM 40.6558 -91.0828 165° South 105 121 4,400 600 Climbing Chicago Center
08:26AM 40.6258 -91.0700 162° South 109 125 5,000 300 Climbing Chicago Center
08:27AM 40.5906 -91.0519 159° South 125 144 5,100  Climbing Chicago Center
08:28AM 40.5511 -91.0375 164° South 139 160 5,000 -60 Descending Chicago Center
08:29AM 40.5131 -91.0231 164° South 143 165 5,000  Level Chicago Center
08:30AM 40.4742 -91.0083 164° South 144 166 5,100  Climbing Chicago Center
08:31AM 40.4331 -90.9939 165° South 149 171 5,100  Level Chicago Center
08:32AM 40.3903 -90.9781 164° South 140 161 5,100  Level Chicago Center
08:33AM 40.3589 -90.9731 173° South 139 160 5,100 -60 Level Kansas City Center
08:34AM 40.3200 -90.9581 164° South 143 165 5,000  Descending Kansas City Center
08:35AM 40.2856 -90.9325 150° Southeast 143 165 5,100  Climbing Kansas City Center
08:36AM 40.2478 -90.9178 163° South 142 163 5,000  Descending Kansas City Center
08:37AM 40.2094 -90.9047 165° South 142 163 5,100  Climbing Kansas City Center
08:38AM 40.1722 -90.8900 163° South 141 162 5,100  Level Kansas City Center
08:39AM 40.1256 -90.8733 165° South 143 165 5,100  Level Kansas City Center
08:40AM 40.0858 -90.8617 167° South 145 167 5,100 -60 Level Kansas City Center
08:41AM 40.0472 -90.8458 163° South 146 168 5,000 -60 Descending Kansas City Center
08:42AM 40.0092 -90.8308 163° South 144 166 5,000  Level Kansas City Center
08:43AM 39.9708 -90.8172 165° South 144 166 5,100  Climbing Kansas City Center
08:44AM 39.9322 -90.8017 163° South 144 166 5,000  Descending Kansas City Center
08:45AM 39.8919 -90.7903 168° South 147 169 5,100  Climbing Kansas City Center
08:46AM 39.8542 -90.7747 162° South 145 167 5,100  Level Kansas City Center
08:48AM 39.8142 -90.7594 164° South 148 170 5,100  Level Kansas City Center
08:49AM 39.7756 -90.7458 165° South 145 167 5,100  Level Kansas City Center
08:50AM 39.7289 -90.7272 163° South 148 170 5,100 -60 Level Kansas City Center
08:51AM 39.6886 -90.7147 167° South 149 171 5,000 -60 Descending Kansas City Center
08:52AM 39.6486 -90.6992 163° South 149 171 5,000  Level Kansas City Center
08:53AM 39.6089 -90.6822 162° South 150 173 5,000  Level Kansas City Center
08:54AM 39.5706 -90.6689 165° South 145 167 5,000  Level Kansas City Center
08:55AM 39.5308 -90.6531 163° South 147 169 5,000  Level Kansas City Center
08:56AM 39.4900 -90.6400 166° South 150 173 5,000  Level Kansas City Center
08:57AM 39.4497 -90.6272 166° South 149 171 5,000  Level Kansas City Center
08:58AM 39.4103 -90.6100 161° South 149 171 5,000  Level Kansas City Center
08:59AM 39.3706 -90.5922 161° South 151 174 5,000  Level Kansas City Center
09:00AM 39.3244 -90.5756 164° South 145 167 5,000  Level Kansas City Center
09:01AM 39.2856 -90.5594 162° South 146 168 5,000  Level Kansas City Center
09:02AM 39.2461 -90.5464 166° South 146 168 5,100  Climbing Kansas City Center
09:03AM 39.2067 -90.5286 161° South 148 170 5,100 -60 Level Kansas City Center
09:04AM 39.1681 -90.5181 168° South 145 167 5,000 -60 Descending Kansas City Center
09:05AM 39.1269 -90.5089 170° South 147 169 5,000  Level Kansas City Center
09:06AM 39.0864 -90.4928 163° South 150 173 5,000  Level Kansas City Center
09:07AM 39.0489 -90.4767 162° South 146 168 5,000 -300 Level Kansas City Center
09:08AM 39.0089 -90.4619 164° South 147 169 4,500 -480 Descending Kansas City Center
09:09AM 38.9703 -90.4494 166° South 145 167 4,100 -540 Descending Kansas City Center
09:10AM 38.9214 -90.4514 182° South 145 167 3,500 -600 Descending Kansas City Center
09:11AM 38.8819 -90.4503 179° South 144 166 2,900 -540 Descending Kansas City Center
09:12AM 38.8414 -90.4503 180° South 145 167 2,400 -360 Descending Kansas City Center
09:13AM 38.8025 -90.4461 175° South 142 163 2,200 -540 Descending Kansas City Center
09:14AM 38.7728 -90.4178 143° Southeast 138 159 1,400 -780 Descending Kansas City Center
09:15AM 38.7536 -90.3783 122° Southeast 133 153 700 -720 Descending Kansas City Center
09:17AM 38.7487 -90.3700 165° South  Level Estimated